KAVP/AVP METAR and TAF weather

Enter ICAO airport designator
Station Type Date Time Source
KAVP METAR 2021/03/03 21:54 UTC NOAA

KAVP 032154Z 01006KT 10SM BKN065 09/M03 A2980 RMK AO2 SLP094 T00941033


Station Type Date Time Source
KAVP Decoded METAR 2021/03/03 21:54 UTC NOAA

WILKES-BARRE/SCRANTON INTERNATIONAL , PA, United States (KAVP) 41-20N 75-44W 291M
Mar 03, 2021 - 04:54 PM EST / 2021.03.03 2154 UTC
Wind: from the N (010 degrees) at 7 MPH (6 KT):0
Visibility: 10 mile(s):0
Sky conditions: mostly cloudy
Temperature: 48.9 F (9.4 C)
Dew Point: 26.1 F (-3.3 C)
Relative Humidity: 40%
Pressure (altimeter): 29.8 in. Hg (1009 hPa)
ob: KAVP 032154Z 01006KT 10SM BKN065 09/M03 A2980 RMK AO2 SLP094 T00941033
cycle: 22

Station Type Date Time Source
KAVP TAF 2021/03/03 18:22 UTC NOAA

TAF KAVP 031720Z 0318/0418 26010KT P6SM SCT050
FM040700 31005KT P6SM OVC035
FM041500 33015G21KT P6SM OVC050

Example: see airport list